Cabo Da Roca — CSZQ — position and weather

sailwx.info

Track history (hours):
 
Tides and Currents Weather Stations Pressure Air Temp Water Temp Dewpoint Dewpoint Depression Visibility Wind Speed Wind Dir Waves Ship Positions

Cabo Da Roca

Last reported at 2017-Nov-19 09:36 UTC. Time now 2017-Nov-21 06:13 UTC.
Position N 38°42' W 009°09'.

Length 28 m.

Type: Tug. MMSI: 263601790.

Date/timePositionNaut miles runAvg speedWind from/ knotsBaromVisibWave heightAir tempDewpointWater temp
2017-Nov-19 09:36N 38°42' W 009°09'1 9.4
2017-Nov-19 09:27N 38°41' W 009°11'2 4.4
2017-Nov-19 09:00N 38°41' W 009°13'3 0.2
2017-Nov-18 15:58N 38°42' W 009°10'2 3.1
2017-Nov-18 15:26N 38°41' W 009°11'0 0.3
2017-Nov-18 14:38N 38°41' W 009°11'0 1.5
2017-Nov-18 14:26N 38°41' W 009°11'0 0.5
2017-Nov-18 13:57N 38°41' W 009°11'2 0.1
2017-Nov-17 11:51N 38°42' W 009°10'0 0.0
2017-Nov-17 11:30N 38°42' W 009°10'0 0.0
2017-Nov-17 11:00N 38°42' W 009°10'0 0.0
2017-Nov-17 10:30N 38°42' W 009°10'0 0.0
2017-Nov-17 09:33N 38°42' W 009°10'0 0.0
2017-Nov-16 08:23N 38°42' W 009°10'0 0.0
2017-Nov-15 14:43N 38°42' W 009°10'0 0.0
2017-Nov-15 12:31N 38°42' W 009°10'0 0.0
2017-Nov-15 12:22N 38°42' W 009°10'0 0.0
2017-Nov-15 11:55N 38°42' W 009°10'1 1.2
2017-Nov-15 11:27N 38°42' W 009°10'0 0.6
2017-Nov-15 10:53N 38°42' W 009°10'0 0.0
2017-Nov-14 16:31N 38°42' W 009°10'0 0.0
2017-Nov-14 16:16N 38°42' W 009°10'0 1.5
2017-Nov-14 16:00N 38°42' W 009°09'0 0.1
2017-Nov-14 12:31N 38°42' W 009°10'0 0.0
2017-Nov-14 12:22N 38°42' W 009°10'0 0.0
2017-Nov-14 09:58N 38°42' W 009°10'0 0.0
2017-Nov-14 09:19N 38°42' W 009°10'0 0.0
2017-Nov-13 00:32N 38°42' W 009°10'0 0.0
2017-Nov-13 00:14N 38°42' W 009°10'3 3.4
2017-Nov-12 23:16N 38°44' W 009°06'2 5.6
2017-Nov-12 22:56N 38°42' W 009°07'  
2017-Nov-10 08:53N 38°42' W 009°10'0 0.2
2017-Nov-10 08:26N 38°42' W 009°09'1 1.6
2017-Nov-10 07:56N 38°42' W 009°10'2 4.5
2017-Nov-10 07:25N 38°41' W 009°13'0 0.4
2017-Nov-10 07:00N 38°41' W 009°13'  
Track history (hours):
 
Tides and Currents Weather Stations Pressure Air Temp Water Temp Dewpoint Dewpoint Depression Visibility Wind Speed Wind Dir Waves Ship Positions

Cabo Da Roca

Last reported at 2017-Nov-19 09:36 UTC. Time now 2017-Nov-21 06:13 UTC.
Position N 38°42' W 009°09'.

Length 28 m.

Type: Tug. MMSI: 263601790.

Date/timePositionNaut miles runAvg speedWind from/ knotsBaromVisibWave heightAir tempDewpointWater temp
2017-Nov-19 09:36N 38°42' W 009°09'1 9.4
2017-Nov-19 09:27N 38°41' W 009°11'2 4.4
2017-Nov-19 09:00N 38°41' W 009°13'3 0.2
2017-Nov-18 15:58N 38°42' W 009°10'2 3.1
2017-Nov-18 15:26N 38°41' W 009°11'0 0.3
2017-Nov-18 14:38N 38°41' W 009°11'0 1.5
2017-Nov-18 14:26N 38°41' W 009°11'0 0.5
2017-Nov-18 13:57N 38°41' W 009°11'2 0.1
2017-Nov-17 11:51N 38°42' W 009°10'0 0.0
2017-Nov-17 11:30N 38°42' W 009°10'0 0.0
2017-Nov-17 11:00N 38°42' W 009°10'0 0.0
2017-Nov-17 10:30N 38°42' W 009°10'0 0.0
2017-Nov-17 09:33N 38°42' W 009°10'0 0.0
2017-Nov-16 08:23N 38°42' W 009°10'0 0.0
2017-Nov-15 14:43N 38°42' W 009°10'0 0.0
2017-Nov-15 12:31N 38°42' W 009°10'0 0.0
2017-Nov-15 12:22N 38°42' W 009°10'0 0.0
2017-Nov-15 11:55N 38°42' W 009°10'1 1.2
2017-Nov-15 11:27N 38°42' W 009°10'0 0.6
2017-Nov-15 10:53N 38°42' W 009°10'0 0.0
2017-Nov-14 16:31N 38°42' W 009°10'0 0.0
2017-Nov-14 16:16N 38°42' W 009°10'0 1.5
2017-Nov-14 16:00N 38°42' W 009°09'0 0.1
2017-Nov-14 12:31N 38°42' W 009°10'0 0.0
2017-Nov-14 12:22N 38°42' W 009°10'0 0.0
2017-Nov-14 09:58N 38°42' W 009°10'0 0.0
2017-Nov-14 09:19N 38°42' W 009°10'0 0.0
2017-Nov-13 00:32N 38°42' W 009°10'0 0.0
2017-Nov-13 00:14N 38°42' W 009°10'3 3.4
2017-Nov-12 23:16N 38°44' W 009°06'2 5.6
2017-Nov-12 22:56N 38°42' W 009°07'  
2017-Nov-10 08:53N 38°42' W 009°10'0 0.2
2017-Nov-10 08:26N 38°42' W 009°09'1 1.6
2017-Nov-10 07:56N 38°42' W 009°10'2 4.5
2017-Nov-10 07:25N 38°41' W 009°13'0 0.4
2017-Nov-10 07:00N 38°41' W 009°13'  

Dump ship's entire track history